sensor_id;sensor_type;location;lat;lon;timestamp;pressure;altitude;pressure_sealevel;temperature;humidity
59767;BME280;46248;58.364;25.582;2023-05-16T00:00:39;100488.03;;;15.96;51.65
59767;BME280;46248;58.364;25.582;2023-05-16T00:04:01;100483.72;;;15.95;51.42
59767;BME280;46248;58.364;25.582;2023-05-16T00:07:24;100485.50;;;15.94;51.26
59767;BME280;46248;58.364;25.582;2023-05-16T00:10:47;100470.63;;;15.93;51.94
59767;BME280;46248;58.364;25.582;2023-05-16T00:14:08;100469.03;;;15.91;51.33
59767;BME280;46248;58.364;25.582;2023-05-16T00:17:30;100465.56;;;15.90;51.91
59767;BME280;46248;58.364;25.582;2023-05-16T00:20:52;100458.63;;;15.89;51.61
59767;BME280;46248;58.364;25.582;2023-05-16T00:24:15;100446.34;;;15.88;51.47
59767;BME280;46248;58.364;25.582;2023-05-16T00:27:38;100442.03;;;15.87;51.64
59767;BME280;46248;58.364;25.582;2023-05-16T00:31:00;100437.72;;;15.86;51.50
59767;BME280;46248;58.364;25.582;2023-05-16T00:34:22;100435.19;;;15.85;51.70
59767;BME280;46248;58.364;25.582;2023-05-16T00:37:44;100424.75;;;15.83;51.59
59767;BME280;46248;58.364;25.582;2023-05-16T00:41:06;100426.56;;;15.83;51.50
59767;BME280;46248;58.364;25.582;2023-05-16T00:44:29;100420.75;;;15.77;51.70
59767;BME280;46248;58.364;25.582;2023-05-16T00:47:51;100418.22;;;15.76;51.47
59767;BME280;46248;58.364;25.582;2023-05-16T00:51:13;100414.03;;;15.73;51.92
59767;BME280;46248;58.364;25.582;2023-05-16T00:54:35;100415.72;;;15.74;52.00
59767;BME280;46248;58.364;25.582;2023-05-16T00:57:58;100411.50;;;15.72;52.29
59767;BME280;46248;58.364;25.582;2023-05-16T01:01:22;100396.63;;;15.71;52.06
59767;BME280;46248;58.364;25.582;2023-05-16T01:04:47;100399.34;;;15.69;51.82
59767;BME280;46248;58.364;25.582;2023-05-16T01:08:11;100396.72;;;15.69;52.28
59767;BME280;46248;58.364;25.582;2023-05-16T01:11:36;100390.69;;;15.67;52.35
59767;BME280;46248;58.364;25.582;2023-05-16T01:15:06;100394.28;;;15.66;52.27
59767;BME280;46248;58.364;25.582;2023-05-16T01:18:35;100404.00;;;15.66;51.82
59767;BME280;46248;58.364;25.582;2023-05-16T01:22:05;100405.59;;;15.68;52.13
59767;BME280;46248;58.364;25.582;2023-05-16T01:25:44;100395.06;;;15.68;52.24
59767;BME280;46248;58.364;25.582;2023-05-16T01:29:08;100397.75;;;15.67;51.95
59767;BME280;46248;58.364;25.582;2023-05-16T01:32:30;100396.09;;;15.66;52.46
59767;BME280;46248;58.364;25.582;2023-05-16T01:35:58;100399.78;;;15.63;52.58
59767;BME280;46248;58.364;25.582;2023-05-16T01:39:30;100400.75;;;15.62;52.57
59767;BME280;46248;58.364;25.582;2023-05-16T01:42:55;100396.53;;;15.60;53.02
59767;BME280;46248;58.364;25.582;2023-05-16T01:46:23;100400.97;;;15.59;53.31
59767;BME280;46248;58.364;25.582;2023-05-16T01:49:50;100397.59;;;15.57;53.14
59767;BME280;46248;58.364;25.582;2023-05-16T01:53:18;100388.00;;;15.56;52.98
59767;BME280;46248;58.364;25.582;2023-05-16T01:56:45;100386.22;;;15.56;53.04
59767;BME280;46248;58.364;25.582;2023-05-16T02:00:10;100390.53;;;15.57;54.54
59767;BME280;46248;58.364;25.582;2023-05-16T02:03:34;100384.63;;;15.54;52.92
59767;BME280;46248;58.364;25.582;2023-05-16T02:06:56;100395.31;;;15.52;52.97
59767;BME280;46248;58.364;25.582;2023-05-16T02:10:20;100381.72;;;15.46;53.06
59767;BME280;46248;58.364;25.582;2023-05-16T02:13:42;100382.22;;;15.51;53.25
59767;BME280;46248;58.364;25.582;2023-05-16T02:17:04;100388.56;;;15.48;53.64
59767;BME280;46248;58.364;25.582;2023-05-16T02:20:27;100377.53;;;15.43;56.51
59767;BME280;46248;58.364;25.582;2023-05-16T02:23:49;100380.41;;;15.40;55.14
59767;BME280;46248;58.364;25.582;2023-05-16T02:27:11;100377.03;;;15.38;54.76
59767;BME280;46248;58.364;25.582;2023-05-16T02:30:32;100370.53;;;15.42;54.24
59767;BME280;46248;58.364;25.582;2023-05-16T02:33:54;100375.59;;;15.45;53.95
59767;BME280;46248;58.364;25.582;2023-05-16T02:37:17;100374.75;;;15.45;54.97
59767;BME280;46248;58.364;25.582;2023-05-16T02:40:39;100375.00;;;15.42;55.65
59767;BME280;46248;58.364;25.582;2023-05-16T02:44:01;100366.56;;;15.37;56.11
59767;BME280;46248;58.364;25.582;2023-05-16T02:47:23;100381.78;;;15.33;56.71
59767;BME280;46248;58.364;25.582;2023-05-16T02:50:45;100373.34;;;15.28;57.26
59767;BME280;46248;58.364;25.582;2023-05-16T02:54:08;100378.97;;;15.23;58.00
59767;BME280;46248;58.364;25.582;2023-05-16T02:57:30;100388.16;;;15.18;58.71
59767;BME280;46248;58.364;25.582;2023-05-16T03:00:52;100388.84;;;15.08;60.60
59767;BME280;46248;58.364;25.582;2023-05-16T03:04:14;100381.06;;;14.94;60.10
59767;BME280;46248;58.364;25.582;2023-05-16T03:07:36;100376.25;;;14.88;60.06
59767;BME280;46248;58.364;25.582;2023-05-16T03:10:59;100394.91;;;14.85;62.05
59767;BME280;46248;58.364;25.582;2023-05-16T03:14:20;100400.84;;;14.76;63.61
59767;BME280;46248;58.364;25.582;2023-05-16T03:17:42;100408.34;;;14.69;64.84
59767;BME280;46248;58.364;25.582;2023-05-16T03:21:04;100406.47;;;14.58;63.81
59767;BME280;46248;58.364;25.582;2023-05-16T03:24:25;100404.22;;;14.52;63.48
59767;BME280;46248;58.364;25.582;2023-05-16T03:27:49;100396.84;;;14.57;64.52
59767;BME280;46248;58.364;25.582;2023-05-16T03:31:11;100410.03;;;14.57;66.00
59767;BME280;46248;58.364;25.582;2023-05-16T03:34:32;100404.97;;;14.54;65.40
59767;BME280;46248;58.364;25.582;2023-05-16T03:37:54;100405.94;;;14.53;64.57
59767;BME280;46248;58.364;25.582;2023-05-16T03:41:16;100413.72;;;14.55;64.85
59767;BME280;46248;58.364;25.582;2023-05-16T03:44:40;100415.50;;;14.54;64.52
59767;BME280;46248;58.364;25.582;2023-05-16T03:48:02;100424.91;;;14.58;64.66
59767;BME280;46248;58.364;25.582;2023-05-16T03:51:24;100424.91;;;14.58;64.90
59767;BME280;46248;58.364;25.582;2023-05-16T03:54:46;100422.38;;;14.57;65.66
59767;BME280;46248;58.364;25.582;2023-05-16T03:58:08;100413.09;;;14.51;65.42
59767;BME280;46248;58.364;25.582;2023-05-16T04:01:31;100409.19;;;14.44;66.75
59767;BME280;46248;58.364;25.582;2023-05-16T04:04:54;100429.09;;;14.35;69.81
59767;BME280;46248;58.364;25.582;2023-05-16T04:08:15;100427.09;;;14.26;68.28
59767;BME280;46248;58.364;25.582;2023-05-16T04:11:37;100412.84;;;14.16;68.72
59767;BME280;46248;58.364;25.582;2023-05-16T04:15:00;100412.41;;;14.09;71.44
59767;BME280;46248;58.364;25.582;2023-05-16T04:18:24;100411.03;;;14.04;71.30
59767;BME280;46248;58.364;25.582;2023-05-16T04:21:46;100409.56;;;14.00;72.35
59767;BME280;46248;58.364;25.582;2023-05-16T04:25:11;100387.88;;;13.96;72.74
59767;BME280;46248;58.364;25.582;2023-05-16T04:28:33;100403.03;;;13.92;73.55
59767;BME280;46248;58.364;25.582;2023-05-16T04:31:56;100423.47;;;13.89;74.17
59767;BME280;46248;58.364;25.582;2023-05-16T04:35:19;100436.06;;;13.84;74.77
59767;BME280;46248;58.364;25.582;2023-05-16T04:38:41;100429.31;;;13.80;75.41
59767;BME280;46248;58.364;25.582;2023-05-16T04:42:04;100422.56;;;13.75;77.10
59767;BME280;46248;58.364;25.582;2023-05-16T04:45:26;100437.50;;;13.75;77.69
59767;BME280;46248;58.364;25.582;2023-05-16T04:48:48;100428.88;;;13.73;77.91
59767;BME280;46248;58.364;25.582;2023-05-16T04:52:12;100422.69;;;13.74;78.72
59767;BME280;46248;58.364;25.582;2023-05-16T04:55:34;100417.63;;;13.71;77.77
59767;BME280;46248;58.364;25.582;2023-05-16T04:58:56;100418.53;;;13.70;78.90
59767;BME280;46248;58.364;25.582;2023-05-16T05:11:22;100411.81;;;13.66;84.10
59767;BME280;46248;58.364;25.582;2023-05-16T05:14:47;100401.56;;;13.61;81.26
59767;BME280;46248;58.364;25.582;2023-05-16T05:18:10;100406.19;;;13.58;82.59
59767;BME280;46248;58.364;25.582;2023-05-16T05:21:35;100402.38;;;13.49;82.15
59767;BME280;46248;58.364;25.582;2023-05-16T05:24:57;100395.56;;;13.46;82.74
59767;BME280;46248;58.364;25.582;2023-05-16T05:28:20;100404.09;;;13.50;83.03
59767;BME280;46248;58.364;25.582;2023-05-16T05:31:42;100393.84;;;13.45;84.08
59767;BME280;46248;58.364;25.582;2023-05-16T05:35:05;100374.16;;;13.38;84.34
59767;BME280;46248;58.364;25.582;2023-05-16T05:38:28;100369.94;;;13.36;85.32
59767;BME280;46248;58.364;25.582;2023-05-16T05:41:52;100377.91;;;13.34;86.13
59767;BME280;46248;58.364;25.582;2023-05-16T05:45:16;100371.94;;;13.32;86.33
59767;BME280;46248;58.364;25.582;2023-05-16T05:48:39;100387.72;;;13.32;88.07
59767;BME280;46248;58.364;25.582;2023-05-16T05:52:02;100385.66;;;13.23;88.94
59767;BME280;46248;58.364;25.582;2023-05-16T05:55:25;100380.66;;;13.18;89.90
59767;BME280;46248;58.364;25.582;2023-05-16T05:58:49;100367.00;;;13.13;88.64
59767;BME280;46248;58.364;25.582;2023-05-16T06:02:13;100362.78;;;13.11;91.60
59767;BME280;46248;58.364;25.582;2023-05-16T06:05:35;100349.34;;;13.01;91.43
59767;BME280;46248;58.364;25.582;2023-05-16T06:08:57;100350.50;;;12.97;91.66
59767;BME280;46248;58.364;25.582;2023-05-16T06:12:19;100341.13;;;12.93;91.18
59767;BME280;46248;58.364;25.582;2023-05-16T06:15:41;100347.03;;;12.96;92.21
59767;BME280;46248;58.364;25.582;2023-05-16T06:19:05;100344.41;;;12.96;92.01
59767;BME280;46248;58.364;25.582;2023-05-16T06:22:27;100340.19;;;12.94;92.42
59767;BME280;46248;58.364;25.582;2023-05-16T06:25:49;100326.41;;;12.90;91.65
59767;BME280;46248;58.364;25.582;2023-05-16T06:29:11;100324.53;;;12.92;91.39
59767;BME280;46248;58.364;25.582;2023-05-16T06:32:33;100314.75;;;12.94;91.31
59767;BME280;46248;58.364;25.582;2023-05-16T06:35:57;100296.28;;;12.81;92.83
59767;BME280;46248;58.364;25.582;2023-05-16T06:39:19;100309.47;;;12.94;93.96
59767;BME280;46248;58.364;25.582;2023-05-16T06:42:41;100301.06;;;12.89;93.63
59767;BME280;46248;58.364;25.582;2023-05-16T06:46:03;100295.72;;;12.91;93.16
59767;BME280;46248;58.364;25.582;2023-05-16T06:49:25;100296.47;;;12.93;92.39
59767;BME280;46248;58.364;25.582;2023-05-16T06:52:51;100293.72;;;12.94;93.56
59767;BME280;46248;58.364;25.582;2023-05-16T06:56:13;100285.75;;;12.96;94.04
59767;BME280;46248;58.364;25.582;2023-05-16T06:59:35;100280.28;;;12.99;94.74
59767;BME280;46248;58.364;25.582;2023-05-16T07:02:57;100267.03;;;13.00;93.99
59767;BME280;46248;58.364;25.582;2023-05-16T07:06:19;100258.88;;;13.05;93.75
59767;BME280;46248;58.364;25.582;2023-05-16T07:09:42;100257.50;;;13.12;93.77
59767;BME280;46248;58.364;25.582;2023-05-16T07:13:05;100265.75;;;13.20;93.84
59767;BME280;46248;58.364;25.582;2023-05-16T07:16:27;100254.00;;;13.26;94.22
59767;BME280;46248;58.364;25.582;2023-05-16T07:19:48;100252.56;;;13.35;92.86
59767;BME280;46248;58.364;25.582;2023-05-16T07:23:10;100249.06;;;13.34;91.91
59767;BME280;46248;58.364;25.582;2023-05-16T07:26:34;100252.34;;;13.50;91.59
59767;BME280;46248;58.364;25.582;2023-05-16T07:29:56;100258.03;;;13.57;90.21
59767;BME280;46248;58.364;25.582;2023-05-16T07:33:19;100253.81;;;13.55;91.34
59767;BME280;46248;58.364;25.582;2023-05-16T07:36:42;100233.63;;;13.55;91.20
59767;BME280;46248;58.364;25.582;2023-05-16T07:40:05;100229.31;;;13.54;91.50
59767;BME280;46248;58.364;25.582;2023-05-16T07:43:29;100244.06;;;13.57;91.03
59767;BME280;46248;58.364;25.582;2023-05-16T07:46:51;100243.00;;;13.59;90.40
59767;BME280;46248;58.364;25.582;2023-05-16T07:50:13;100240.16;;;13.62;90.60
59767;BME280;46248;58.364;25.582;2023-05-16T07:53:35;100240.03;;;13.64;91.15
59767;BME280;46248;58.364;25.582;2023-05-16T07:56:57;100231.75;;;13.57;91.29
59767;BME280;46248;58.364;25.582;2023-05-16T08:00:22;100231.94;;;13.54;90.68
59767;BME280;46248;58.364;25.582;2023-05-16T08:03:43;100223.00;;;13.57;89.54
59767;BME280;46248;58.364;25.582;2023-05-16T08:07:05;100216.78;;;13.58;89.50
59767;BME280;46248;58.364;25.582;2023-05-16T08:10:27;100202.38;;;13.63;89.50
59767;BME280;46248;58.364;25.582;2023-05-16T08:13:49;100207.53;;;13.65;90.12
59767;BME280;46248;58.364;25.582;2023-05-16T08:17:13;100202.28;;;13.65;90.05
59767;BME280;46248;58.364;25.582;2023-05-16T08:20:35;100205.41;;;13.70;89.67
59767;BME280;46248;58.364;25.582;2023-05-16T08:23:56;100206.59;;;13.66;89.79
59767;BME280;46248;58.364;25.582;2023-05-16T08:27:19;100194.41;;;13.65;89.16
59767;BME280;46248;58.364;25.582;2023-05-16T08:30:41;100161.97;;;13.51;88.79
59767;BME280;46248;58.364;25.582;2023-05-16T08:34:06;100176.19;;;13.62;88.77
59767;BME280;46248;58.364;25.582;2023-05-16T08:37:29;100173.44;;;13.63;88.41
59767;BME280;46248;58.364;25.582;2023-05-16T08:40:51;100183.66;;;13.68;88.09
59767;BME280;46248;58.364;25.582;2023-05-16T08:44:13;100186.91;;;13.71;88.02
59767;BME280;46248;58.364;25.582;2023-05-16T08:47:41;100185.94;;;13.72;87.76
59767;BME280;46248;58.364;25.582;2023-05-16T08:51:08;100187.97;;;13.69;87.83
59767;BME280;46248;58.364;25.582;2023-05-16T08:54:31;100171.56;;;13.65;88.04
59767;BME280;46248;58.364;25.582;2023-05-16T08:57:54;100181.13;;;13.66;87.05
59767;BME280;46248;58.364;25.582;2023-05-16T09:01:17;100165.44;;;13.65;88.49
59767;BME280;46248;58.364;25.582;2023-05-16T09:04:40;100182.06;;;13.65;88.70
59767;BME280;46248;58.364;25.582;2023-05-16T09:08:06;100184.16;;;13.60;88.88
59767;BME280;46248;58.364;25.582;2023-05-16T09:11:27;100173.78;;;13.59;88.71
59767;BME280;46248;58.364;25.582;2023-05-16T09:14:50;100166.19;;;13.54;88.87
59767;BME280;46248;58.364;25.582;2023-05-16T09:18:12;100166.59;;;13.61;88.68
59767;BME280;46248;58.364;25.582;2023-05-16T09:21:34;100159.44;;;13.63;88.17
59767;BME280;46248;58.364;25.582;2023-05-16T09:24:58;100161.94;;;13.64;88.98
59767;BME280;46248;58.364;25.582;2023-05-16T09:28:21;100159.31;;;13.64;88.82
59767;BME280;46248;58.364;25.582;2023-05-16T09:31:44;100155.84;;;13.64;90.27
59767;BME280;46248;58.364;25.582;2023-05-16T09:35:14;100150.59;;;13.64;90.29
59767;BME280;46248;58.364;25.582;2023-05-16T09:38:51;100154.81;;;13.66;89.54
59767;BME280;46248;58.364;25.582;2023-05-16T09:42:17;100157.44;;;13.66;91.52
59767;BME280;46248;58.364;25.582;2023-05-16T09:45:44;100164.38;;;13.67;90.69
59767;BME280;46248;58.364;25.582;2023-05-16T09:49:11;100159.09;;;13.67;91.04
59767;BME280;46248;58.364;25.582;2023-05-16T09:52:40;100164.50;;;13.66;89.42
59767;BME280;46248;58.364;25.582;2023-05-16T09:56:05;100157.22;;;13.69;89.98
59767;BME280;46248;58.364;25.582;2023-05-16T09:59:30;100153.31;;;13.75;90.35
59767;BME280;46248;58.364;25.582;2023-05-16T10:02:57;100151.44;;;13.77;89.50
59767;BME280;46248;58.364;25.582;2023-05-16T10:06:26;100157.00;;;13.72;89.66
59767;BME280;46248;58.364;25.582;2023-05-16T10:09:50;100153.09;;;13.78;90.04
59767;BME280;46248;58.364;25.582;2023-05-16T10:13:20;100151.75;;;13.72;91.07
59767;BME280;46248;58.364;25.582;2023-05-16T10:16:49;100137.75;;;13.72;89.92
59767;BME280;46248;58.364;25.582;2023-05-16T10:20:16;100137.53;;;13.75;89.50
59767;BME280;46248;58.364;25.582;2023-05-16T10:23:44;100128.81;;;13.74;88.57
59767;BME280;46248;58.364;25.582;2023-05-16T10:27:12;100118.06;;;13.78;88.71
59767;BME280;46248;58.364;25.582;2023-05-16T10:30:43;100117.09;;;13.79;88.06
59767;BME280;46248;58.364;25.582;2023-05-16T10:34:08;100120.25;;;13.84;87.51
59767;BME280;46248;58.364;25.582;2023-05-16T10:37:37;100082.81;;;13.67;87.75
59767;BME280;46248;58.364;25.582;2023-05-16T10:41:01;100126.31;;;13.97;87.22
59767;BME280;46248;58.364;25.582;2023-05-16T10:44:33;100117.59;;;13.96;86.50
59767;BME280;46248;58.364;25.582;2023-05-16T10:48:00;100101.19;;;13.93;85.19
59767;BME280;46248;58.364;25.582;2023-05-16T10:51:36;100111.03;;;14.02;85.48
59767;BME280;46248;58.364;25.582;2023-05-16T10:55:14;100117.06;;;14.04;84.87
59767;BME280;46248;58.364;25.582;2023-05-16T10:58:54;100110.00;;;14.05;85.13
59767;BME280;46248;58.364;25.582;2023-05-16T11:02:24;100111.56;;;14.07;84.58
59767;BME280;46248;58.364;25.582;2023-05-16T11:05:52;100112.28;;;14.09;84.22
59767;BME280;46248;58.364;25.582;2023-05-16T11:09:25;100115.19;;;14.17;84.03
59767;BME280;46248;58.364;25.582;2023-05-16T11:12:49;100077.44;;;14.06;83.17
59767;BME280;46248;58.364;25.582;2023-05-16T11:16:28;100099.78;;;14.24;83.46
59767;BME280;46248;58.364;25.582;2023-05-16T11:19:51;100103.91;;;14.28;83.22
59767;BME280;46248;58.364;25.582;2023-05-16T11:23:23;100110.72;;;14.31;83.21
59767;BME280;46248;58.364;25.582;2023-05-16T11:26:51;100107.84;;;14.34;84.36
59767;BME280;46248;58.364;25.582;2023-05-16T11:30:15;100107.84;;;14.34;82.71
59767;BME280;46248;58.364;25.582;2023-05-16T11:33:40;100104.16;;;14.36;82.47
59767;BME280;46248;58.364;25.582;2023-05-16T11:37:09;100115.81;;;14.45;82.48
59767;BME280;46248;58.364;25.582;2023-05-16T11:40:31;100109.16;;;14.52;82.38
59767;BME280;46248;58.364;25.582;2023-05-16T11:43:55;100106.81;;;14.60;82.24
59767;BME280;46248;58.364;25.582;2023-05-16T11:47:20;100109.94;;;14.65;81.26
59767;BME280;46248;58.364;25.582;2023-05-16T11:50:42;100112.13;;;14.72;81.38
59767;BME280;46248;58.364;25.582;2023-05-16T11:54:05;100102.69;;;14.80;80.77
59767;BME280;46248;58.364;25.582;2023-05-16T11:57:32;100084.44;;;14.66;80.64
59767;BME280;46248;58.364;25.582;2023-05-16T12:00:56;100091.31;;;14.80;80.43
59767;BME280;46248;58.364;25.582;2023-05-16T12:04:20;100104.25;;;14.83;79.79
59767;BME280;46248;58.364;25.582;2023-05-16T12:07:45;100091.16;;;14.81;79.55
59767;BME280;46248;58.364;25.582;2023-05-16T12:11:09;100084.22;;;14.80;79.26
59767;BME280;46248;58.364;25.582;2023-05-16T12:14:36;100099.44;;;14.88;79.60
59767;BME280;46248;58.364;25.582;2023-05-16T12:18:06;100098.75;;;14.86;78.83
59767;BME280;46248;58.364;25.582;2023-05-16T12:21:34;100090.34;;;14.81;78.46
59767;BME280;46248;58.364;25.582;2023-05-16T12:24:58;100085.34;;;14.89;77.99
59767;BME280;46248;58.364;25.582;2023-05-16T12:28:29;100064.72;;;14.94;78.08
59767;BME280;46248;58.364;25.582;2023-05-16T12:31:54;100068.44;;;15.03;77.70
59767;BME280;46248;58.364;25.582;2023-05-16T12:35:20;100070.25;;;15.02;77.80
59767;BME280;46248;58.364;25.582;2023-05-16T12:38:45;100081.63;;;15.03;77.22
59767;BME280;46248;58.364;25.582;2023-05-16T12:42:10;100079.34;;;14.98;77.14
59767;BME280;46248;58.364;25.582;2023-05-16T12:45:33;100081.72;;;14.90;77.27
59767;BME280;46248;58.364;25.582;2023-05-16T12:49:03;100088.31;;;14.84;77.89
59767;BME280;46248;58.364;25.582;2023-05-16T12:52:30;100047.75;;;14.63;77.92
59767;BME280;46248;58.364;25.582;2023-05-16T12:55:56;100058.22;;;14.64;78.25
59767;BME280;46248;58.364;25.582;2023-05-16T12:59:32;100055.22;;;14.69;77.84
59767;BME280;46248;58.364;25.582;2023-05-16T13:02:54;100070.91;;;14.71;77.66
59767;BME280;46248;58.364;25.582;2023-05-16T13:06:18;100079.66;;;14.71;77.53
59767;BME280;46248;58.364;25.582;2023-05-16T13:09:44;100079.75;;;14.70;78.49
59767;BME280;46248;58.364;25.582;2023-05-16T13:13:08;100076.53;;;14.66;78.23
59767;BME280;46248;58.364;25.582;2023-05-16T13:16:31;100073.38;;;14.61;78.41
59767;BME280;46248;58.364;25.582;2023-05-16T13:19:53;100069.31;;;14.57;78.95
59767;BME280;46248;58.364;25.582;2023-05-16T13:23:17;100079.25;;;14.53;79.14
59767;BME280;46248;58.364;25.582;2023-05-16T13:26:40;100078.69;;;14.48;79.66
59767;BME280;46248;58.364;25.582;2023-05-16T13:30:03;100068.41;;;14.45;79.34
59767;BME280;46248;58.364;25.582;2023-05-16T13:33:32;100068.41;;;14.45;79.34
59767;BME280;46248;58.364;25.582;2023-05-16T13:37:03;100069.63;;;14.52;79.67
59767;BME280;46248;58.364;25.582;2023-05-16T13:40:25;100059.38;;;14.60;79.18
59767;BME280;46248;58.364;25.582;2023-05-16T13:43:53;100070.19;;;14.69;79.19
59767;BME280;46248;58.364;25.582;2023-05-16T13:47:21;100058.34;;;14.74;78.66
59767;BME280;46248;58.364;25.582;2023-05-16T13:50:43;100048.25;;;14.68;78.83
59767;BME280;46248;58.364;25.582;2023-05-16T13:54:08;100028.34;;;14.53;79.36
59767;BME280;46248;58.364;25.582;2023-05-16T13:57:33;100067.09;;;14.75;78.74
59767;BME280;46248;58.364;25.582;2023-05-16T14:01:06;100046.19;;;14.60;79.31
59767;BME280;46248;58.364;25.582;2023-05-16T14:04:35;100056.41;;;14.65;78.97
59767;BME280;46248;58.364;25.582;2023-05-16T14:07:59;100062.78;;;14.74;79.22
59767;BME280;46248;58.364;25.582;2023-05-16T14:11:24;100059.91;;;14.77;79.06
59767;BME280;46248;58.364;25.582;2023-05-16T14:14:48;100071.06;;;14.80;79.61
59767;BME280;46248;58.364;25.582;2023-05-16T14:18:15;100053.53;;;14.68;80.57
59767;BME280;46248;58.364;25.582;2023-05-16T14:21:46;100063.00;;;14.71;81.77
59767;BME280;46248;58.364;25.582;2023-05-16T14:25:22;100055.31;;;14.56;81.96
59767;BME280;46248;58.364;25.582;2023-05-16T14:28:53;100041.31;;;14.43;82.79
59767;BME280;46248;58.364;25.582;2023-05-16T14:32:27;100059.66;;;14.44;83.71
59767;BME280;46248;58.364;25.582;2023-05-16T14:35:57;100041.91;;;14.35;83.79
59767;BME280;46248;58.364;25.582;2023-05-16T14:39:33;100062.16;;;14.46;86.20
59767;BME280;46248;58.364;25.582;2023-05-16T14:43:14;100041.75;;;14.26;84.76
59767;BME280;46248;58.364;25.582;2023-05-16T14:46:50;100030.81;;;14.19;84.11
59767;BME280;46248;58.364;25.582;2023-05-16T14:50:23;100020.63;;;14.14;84.24
59767;BME280;46248;58.364;25.582;2023-05-16T14:53:58;100058.22;;;14.40;84.64
59767;BME280;46248;58.364;25.582;2023-05-16T14:57:33;99947.25;;;13.74;84.28
59767;BME280;46248;58.364;25.582;2023-05-16T15:00:58;100056.38;;;14.54;86.84
59767;BME280;46248;58.364;25.582;2023-05-16T15:04:22;100032.94;;;14.38;84.03
59767;BME280;46248;58.364;25.582;2023-05-16T15:07:44;100064.88;;;14.57;83.44
59767;BME280;46248;58.364;25.582;2023-05-16T15:11:24;100057.69;;;14.59;84.67
59767;BME280;46248;58.364;25.582;2023-05-16T15:15:14;99967.56;;;13.96;84.18
59767;BME280;46248;58.364;25.582;2023-05-16T15:22:55;100049.00;;;14.46;84.33
59767;BME280;46248;58.364;25.582;2023-05-16T15:26:27;100065.22;;;14.53;83.96
59767;BME280;46248;58.364;25.582;2023-05-16T15:30:01;100065.94;;;14.55;84.37
59767;BME280;46248;58.364;25.582;2023-05-16T15:33:47;100040.75;;;14.51;84.57
59767;BME280;46248;58.364;25.582;2023-05-16T15:37:16;100022.41;;;14.49;84.40
59767;BME280;46248;58.364;25.582;2023-05-16T15:40:47;100044.19;;;14.75;85.64
59767;BME280;46248;58.364;25.582;2023-05-16T15:44:23;100025.25;;;14.59;86.90
59767;BME280;46248;58.364;25.582;2023-05-16T15:48:13;100050.94;;;14.91;85.37
59767;BME280;46248;58.364;25.582;2023-05-16T15:51:41;100060.53;;;15.03;84.60
59767;BME280;46248;58.364;25.582;2023-05-16T15:55:05;100052.16;;;15.09;84.48
59767;BME280;46248;58.364;25.582;2023-05-16T15:58:35;100021.22;;;15.11;84.86
59767;BME280;46248;58.364;25.582;2023-05-16T16:02:09;100046.75;;;15.44;83.98
59767;BME280;46248;58.364;25.582;2023-05-16T16:05:48;100061.84;;;15.65;83.25
59767;BME280;46248;58.364;25.582;2023-05-16T16:09:14;100047.13;;;15.73;81.69
59767;BME280;46248;58.364;25.582;2023-05-16T16:12:40;100024.91;;;15.53;81.55
59767;BME280;46248;58.364;25.582;2023-05-16T16:16:43;99943.69;;;15.14;81.65
59767;BME280;46248;58.364;25.582;2023-05-16T16:39:27;100062.16;;;15.94;80.59
59767;BME280;46248;58.364;25.582;2023-05-16T16:42:59;100064.31;;;16.00;80.38
59767;BME280;46248;58.364;25.582;2023-05-16T16:46:36;100047.88;;;16.08;79.83
59767;BME280;46248;58.364;25.582;2023-05-16T16:50:00;100051.94;;;16.65;79.15
59767;BME280;46248;58.364;25.582;2023-05-16T16:53:22;100045.41;;;17.11;77.80
59767;BME280;46248;58.364;25.582;2023-05-16T16:56:52;100036.34;;;17.44;75.55
59767;BME280;46248;58.364;25.582;2023-05-16T17:00:18;100068.38;;;17.91;74.64
59767;BME280;46248;58.364;25.582;2023-05-16T17:03:42;100070.13;;;18.31;73.46
59767;BME280;46248;58.364;25.582;2023-05-16T17:07:05;100070.09;;;18.60;72.32
59767;BME280;46248;58.364;25.582;2023-05-16T17:10:30;100068.16;;;18.62;71.37
59767;BME280;46248;58.364;25.582;2023-05-16T17:14:02;100054.06;;;18.62;70.46
59767;BME280;46248;58.364;25.582;2023-05-16T17:17:29;100046.25;;;18.80;68.66
59767;BME280;46248;58.364;25.582;2023-05-16T17:20:51;100066.59;;;18.89;69.66
59767;BME280;46248;58.364;25.582;2023-05-16T17:24:18;100066.59;;;18.69;69.66
59767;BME280;46248;58.364;25.582;2023-05-16T17:27:44;100073.56;;;18.61;69.80
59767;BME280;46248;58.364;25.582;2023-05-16T17:31:08;100076.66;;;18.07;70.14
59767;BME280;46248;58.364;25.582;2023-05-16T17:34:30;100063.34;;;17.38;71.88
59767;BME280;46248;58.364;25.582;2023-05-16T17:38:06;100059.88;;;16.86;73.11
59767;BME280;46248;58.364;25.582;2023-05-16T17:41:31;100082.94;;;16.63;74.03
59767;BME280;46248;58.364;25.582;2023-05-16T17:44:56;100078.63;;;16.62;74.97
59767;BME280;46248;58.364;25.582;2023-05-16T17:48:26;100088.63;;;16.79;74.88
59767;BME280;46248;58.364;25.582;2023-05-16T17:51:52;100077.47;;;16.97;74.42
59767;BME280;46248;58.364;25.582;2023-05-16T17:55:19;100072.91;;;16.78;74.15
59767;BME280;46248;58.364;25.582;2023-05-16T17:58:45;100086.81;;;16.59;74.29
59767;BME280;46248;58.364;25.582;2023-05-16T18:02:11;100078.97;;;16.36;75.10
59767;BME280;46248;58.364;25.582;2023-05-16T18:05:39;100092.13;;;16.15;76.33
59767;BME280;46248;58.364;25.582;2023-05-16T18:09:06;100109.00;;;15.92;76.96
59767;BME280;46248;58.364;25.582;2023-05-16T18:12:31;100084.88;;;15.51;77.48